Terminal Aerodrome Forecast
Issued by NWS Grand Forks, ND

Home | Current Version | Previous Version | Text Only | Print | Product List | Glossary On
Versions: 1 2 3 4 5 6 7 8 9 10 11 12 13 14 15 16 17 18 19 20
529
FTUS43 KFGF 281731
TAFFAR
TAF
KFAR 281731Z 2818/2918 31020G28KT P6SM VCTS BKN060CB
     FM290000 33016G24KT P6SM VCSH BKN080
     FM290300 32012KT P6SM BKN050
     FM290700 32012KT P6SM OVC030
     FM291200 32015G22KT P6SM OVC015=

USA.gov is the U.S. government's official web portal to all federal, state and local government web resources and services.